createdAt,value
2023-01-05T00:01:52.300Z,99076.06
2023-01-05T00:04:21.546Z,99086.38
2023-01-05T00:06:50.187Z,99071.38
2023-01-05T00:09:20.108Z,99063.47
2023-01-05T00:12:07.380Z,99072.06
2023-01-05T00:14:53.562Z,99052.09
2023-01-05T00:17:42.273Z,99050.41
2023-01-05T00:20:34.353Z,99046.13
2023-01-05T00:23:03.407Z,99047.81
2023-01-05T00:25:35.067Z,99049.47
2023-01-05T00:28:05.544Z,99040.72
2023-01-05T00:30:38.917Z,99031.81
2023-01-05T00:33:09.896Z,99035.19
2023-01-05T00:35:39.140Z,99026.47
2023-01-05T00:38:08.864Z,99031.34
2023-01-05T00:40:39.858Z,99033.81
2023-01-05T00:43:09.918Z,99031.03
2023-01-05T00:45:38.487Z,99030.88
2023-01-05T00:48:07.511Z,99020.34
2023-01-05T00:50:36.127Z,99026.50
2023-01-05T00:53:04.833Z,99015.94
2023-01-05T00:55:33.420Z,99016.72
2023-01-05T00:58:01.986Z,98999.19
2023-01-05T01:00:32.386Z,99007.03
2023-01-05T01:03:00.856Z,99000.69
2023-01-05T01:05:30.301Z,99007.47
2023-01-05T01:07:59.329Z,99004.63
2023-01-05T01:10:28.915Z,99000.88
2023-01-05T01:12:59.306Z,98992.97
2023-01-05T01:15:28.980Z,98980.47
2023-01-05T01:17:59.915Z,98994.41
2023-01-05T01:20:28.471Z,98983.69
2023-01-05T01:22:57.025Z,98978.28
2023-01-05T01:25:25.737Z,98969.34
2023-01-05T01:27:54.312Z,98961.34
2023-01-05T01:30:22.996Z,98963.03
2023-01-05T01:32:52.099Z,98952.72
2023-01-05T01:35:26.990Z,98952.91
2023-01-05T01:37:56.213Z,98946.91
2023-01-05T01:40:26.234Z,98942.63
2023-01-05T01:42:55.587Z,98940.75
2023-01-05T01:45:26.741Z,98938.22
2023-01-05T01:47:59.352Z,98926.94
2023-01-05T01:50:35.280Z,98932.91
2023-01-05T01:53:08.298Z,98920.59
2023-01-05T01:55:38.690Z,98908.13
2023-01-05T01:58:12.195Z,98902.88
2023-01-05T02:00:43.477Z,98904.47
2023-01-05T02:03:12.790Z,98903.63
2023-01-05T02:05:44.833Z,98895.97
2023-01-05T02:08:14.958Z,98887.38
2023-01-05T02:11:03.401Z,98888.22
2023-01-05T02:13:46.856Z,98890.56
2023-01-05T02:16:25.669Z,98881.69
2023-01-05T02:19:16.630Z,98883.97
2023-01-05T02:22:01.772Z,98882.97
2023-01-05T02:24:51.619Z,98889.09
2023-01-05T02:27:46.671Z,98882.38
2023-01-05T02:30:48.549Z,98886.00
2023-01-05T02:33:29.248Z,98881.78
2023-01-05T02:36:05.255Z,98893.16
2023-01-05T02:38:41.689Z,98874.88
2023-01-05T02:41:17.825Z,98876.75
2023-01-05T02:43:46.968Z,98877.69
2023-01-05T02:46:17.234Z,98868.13
2023-01-05T02:48:48.238Z,98866.44
2023-01-05T02:51:23.121Z,98860.28
2023-01-05T02:53:55.418Z,98868.91
2023-01-05T02:56:29.711Z,98864.59
2023-01-05T02:59:04.021Z,98853.22
2023-01-05T03:01:37.410Z,98853.94
2023-01-05T03:04:13.592Z,98846.19
2023-01-05T03:06:49.161Z,98843.69
2023-01-05T03:09:26.244Z,98841.16
2023-01-05T03:12:21.695Z,98835.94
2023-01-05T03:14:55.729Z,98837.69
2023-01-05T03:17:33.980Z,98851.78
2023-01-05T03:20:03.172Z,98834.34
2023-01-05T03:22:51.233Z,98841.47
2023-01-05T03:25:40.211Z,98844.88
2023-01-05T03:28:32.719Z,98834.41
2023-01-05T03:31:24.220Z,98849.25
2023-01-05T03:34:18.826Z,98840.75
2023-01-05T03:36:53.757Z,98837.56
2023-01-05T03:39:26.750Z,98845.56
2023-01-05T03:41:59.056Z,98840.59
2023-01-05T03:44:28.513Z,98837.16
2023-01-05T03:46:58.632Z,98837.16
2023-01-05T03:49:30.001Z,98830.25
2023-01-05T03:52:01.270Z,98828.63
2023-01-05T03:54:31.112Z,98818.28
2023-01-05T03:57:01.124Z,98813.91
2023-01-05T03:59:31.376Z,98809.56
2023-01-05T04:02:02.107Z,98801.00
2023-01-05T04:04:33.460Z,98795.03
2023-01-05T04:07:05.525Z,98788.09
2023-01-05T04:09:36.423Z,98794.91
2023-01-05T04:12:06.840Z,98794.84
2023-01-05T04:14:41.782Z,98790.38
2023-01-05T04:17:10.660Z,98788.59
2023-01-05T04:19:45.379Z,98797.19
2023-01-05T04:22:15.091Z,98784.13
2023-01-05T04:24:46.383Z,98777.22
2023-01-05T04:27:15.978Z,98773.75
2023-01-05T04:29:45.282Z,98785.16
2023-01-05T04:32:16.123Z,98791.28
2023-01-05T04:34:48.015Z,98782.69
2023-01-05T04:37:17.109Z,98786.25
2023-01-05T04:39:46.412Z,98780.25
2023-01-05T04:42:15.953Z,98776.81
2023-01-05T04:44:46.132Z,98771.59
2023-01-05T04:47:14.698Z,98762.91
2023-01-05T04:49:46.464Z,98771.75
2023-01-05T04:52:17.451Z,98768.41
2023-01-05T04:54:47.699Z,98766.81
2023-01-05T04:57:20.476Z,98764.19
2023-01-05T04:59:51.459Z,98758.13
2023-01-05T05:02:23.256Z,98770.44
2023-01-05T05:04:56.228Z,98769.59
2023-01-05T05:07:24.630Z,98763.69
2023-01-05T05:09:54.955Z,98753.25
2023-01-05T05:12:23.580Z,98755.88
2023-01-05T05:14:54.050Z,98759.31
2023-01-05T05:17:22.856Z,98761.00
2023-01-05T05:19:51.675Z,98754.84
2023-01-05T05:22:24.558Z,98759.13
2023-01-05T05:24:53.111Z,98759.13
2023-01-05T05:27:21.602Z,98752.97
2023-01-05T05:29:50.248Z,98744.41
2023-01-05T05:32:18.737Z,98761.16
2023-01-05T05:34:47.315Z,98765.63
2023-01-05T05:37:15.908Z,98759.81
2023-01-05T05:39:45.830Z,98752.09
2023-01-05T05:42:14.317Z,98754.59
2023-01-05T05:44:42.880Z,98771.97
2023-01-05T05:47:11.245Z,98763.22
2023-01-05T05:49:39.674Z,98769.00
2023-01-05T05:52:08.557Z,98769.59
2023-01-05T05:54:37.149Z,98765.72
2023-01-05T05:57:07.345Z,98769.72
2023-01-05T05:59:36.001Z,98764.97
2023-01-05T06:02:04.575Z,98773.41
2023-01-05T06:04:33.145Z,98773.22
2023-01-05T06:07:01.631Z,98786.22
2023-01-05T06:09:30.207Z,98781.72
2023-01-05T06:11:59.024Z,98778.28
2023-01-05T06:14:28.919Z,98781.81
2023-01-05T06:16:57.545Z,98782.66
2023-01-05T06:19:26.076Z,98781.81
2023-01-05T06:21:54.721Z,98777.50
2023-01-05T06:24:23.289Z,98792.25
2023-01-05T06:26:51.730Z,98787.81
2023-01-05T06:29:20.183Z,98793.03
2023-01-05T06:31:50.079Z,98791.16
2023-01-05T06:34:18.902Z,98793.78
2023-01-05T06:36:47.509Z,98794.53
2023-01-05T06:39:16.221Z,98800.69
2023-01-05T06:41:44.927Z,98794.63
2023-01-05T06:44:13.423Z,98797.31
2023-01-05T06:46:42.155Z,98802.38
2023-01-05T06:49:14.931Z,98803.28
2023-01-05T06:51:43.327Z,98801.53
2023-01-05T06:54:11.836Z,98794.53
2023-01-05T06:56:40.320Z,98798.06
2023-01-05T06:59:08.835Z,98800.69
2023-01-05T07:01:38.090Z,98799.84
2023-01-05T07:04:07.042Z,98804.16
2023-01-05T07:06:37.445Z,98794.72
2023-01-05T07:09:06.345Z,98801.63
2023-01-05T07:11:35.210Z,98803.41
2023-01-05T07:14:04.163Z,98808.81
2023-01-05T07:16:32.772Z,98814.09
2023-01-05T07:19:01.952Z,98817.66
2023-01-05T07:21:30.690Z,98814.09
2023-01-05T07:24:00.846Z,98811.56
2023-01-05T07:26:29.375Z,98819.25
2023-01-05T07:28:58.800Z,98816.56
2023-01-05T07:31:27.356Z,98827.66
2023-01-05T07:33:56.189Z,98831.16
2023-01-05T07:36:25.541Z,98826.09
2023-01-05T07:38:55.259Z,98813.19
2023-01-05T07:41:28.272Z,98821.22
2023-01-05T07:43:58.047Z,98819.69
2023-01-05T07:46:27.707Z,98818.19
2023-01-05T07:48:56.467Z,98818.28
2023-01-05T07:51:25.051Z,98818.19
2023-01-05T07:53:55.036Z,98815.50
2023-01-05T07:56:25.504Z,98817.91
2023-01-05T07:58:55.717Z,98819.63
2023-01-05T08:01:26.060Z,98818.75
2023-01-05T08:03:55.011Z,98832.78
2023-01-05T08:06:26.278Z,98818.03
2023-01-05T08:08:58.069Z,98821.53
2023-01-05T08:11:26.571Z,98822.41
2023-01-05T08:14:02.929Z,98824.00
2023-01-05T08:16:35.141Z,98823.13
2023-01-05T08:19:10.739Z,98821.28
2023-01-05T08:21:40.585Z,98831.59
2023-01-05T08:24:11.049Z,98825.22
2023-01-05T08:26:40.224Z,98838.97
2023-01-05T08:29:12.707Z,98841.69
2023-01-05T08:31:42.746Z,98835.59
2023-01-05T08:34:12.277Z,98833.91
2023-01-05T08:36:42.073Z,98836.63
2023-01-05T08:39:12.561Z,98845.41
2023-01-05T08:41:42.381Z,98841.84
2023-01-05T08:44:15.004Z,98847.56
2023-01-05T08:46:45.191Z,98845.53
2023-01-05T08:49:13.979Z,98854.16
2023-01-05T08:51:42.627Z,98848.47
2023-01-05T08:54:11.268Z,98857.63
2023-01-05T08:56:40.985Z,98855.34
2023-01-05T08:59:12.946Z,98856.75
2023-01-05T09:01:43.038Z,98855.63
2023-01-05T09:04:11.545Z,98859.94
2023-01-05T09:06:40.604Z,98862.63
2023-01-05T09:09:09.207Z,98858.44
2023-01-05T09:11:37.792Z,98853.38
2023-01-05T09:14:06.449Z,98853.38
2023-01-05T09:17:05.853Z,98857.78
2023-01-05T09:19:26.294Z,98864.50
2023-01-05T09:21:54.872Z,98867.09
2023-01-05T09:24:23.563Z,98842.75
2023-01-05T09:26:52.292Z,98852.34
2023-01-05T09:29:20.973Z,98847.13
2023-01-05T09:31:49.736Z,98850.59
2023-01-05T09:34:19.276Z,98848.13
2023-01-05T09:36:49.447Z,98838.69
2023-01-05T09:39:18.217Z,98849.94
2023-01-05T09:41:49.719Z,98846.00
2023-01-05T09:44:29.417Z,98849.59
2023-01-05T09:47:03.919Z,98846.59
2023-01-05T09:49:35.374Z,98843.81
2023-01-05T09:52:11.022Z,98840.06
2023-01-05T09:54:40.881Z,98853.91
2023-01-05T09:57:18.067Z,98850.16
2023-01-05T09:59:49.426Z,98854.44
2023-01-05T10:02:26.006Z,98854.09
2023-01-05T10:04:56.695Z,98876.81
2023-01-05T10:07:37.421Z,98875.31
2023-01-05T10:10:16.593Z,98863.34
2023-01-05T10:13:03.522Z,98873.91
2023-01-05T10:15:37.000Z,98872.16
2023-01-05T10:18:11.984Z,98858.22
2023-01-05T10:20:48.118Z,98871.31
2023-01-05T10:23:29.332Z,98859.34
2023-01-05T10:26:06.285Z,98852.03
2023-01-05T10:28:41.968Z,98861.28
2023-01-05T10:31:23.759Z,98853.72
2023-01-05T10:33:58.986Z,98863.25
2023-01-05T10:37:11.616Z,98855.59
2023-01-05T10:39:56.758Z,98852.22
2023-01-05T10:42:41.140Z,98852.38
2023-01-05T10:45:12.947Z,98850.63
2023-01-05T10:47:45.408Z,98854.72
2023-01-05T10:50:32.044Z,98849.28
2023-01-05T10:53:02.501Z,98848.56
2023-01-05T10:55:33.379Z,98840.34
2023-01-05T10:58:02.489Z,98852.31
2023-01-05T11:00:43.189Z,98850.41
2023-01-05T11:03:17.909Z,98846.13
2023-01-05T11:05:48.690Z,98856.44
2023-01-05T11:08:19.555Z,98846.84
2023-01-05T11:10:57.148Z,98845.13
2023-01-05T11:13:37.234Z,98852.94
2023-01-05T11:16:13.055Z,98844.72
2023-01-05T11:18:49.608Z,98858.31
2023-01-05T11:21:21.790Z,98860.06
2023-01-05T11:23:56.357Z,98855.03
2023-01-05T11:26:29.658Z,98865.81
2023-01-05T11:29:03.679Z,98858.22
2023-01-05T11:31:38.277Z,98858.47
2023-01-05T11:34:14.627Z,98865.69
2023-01-05T11:36:44.112Z,98864.56
2023-01-05T11:39:24.249Z,98860.16
2023-01-05T11:42:05.658Z,98865.84
2023-01-05T11:44:35.126Z,98863.53
2023-01-05T11:47:05.190Z,98864.13
2023-01-05T11:49:34.062Z,98867.19
2023-01-05T11:52:04.348Z,98860.88
2023-01-05T11:54:38.319Z,98872.19
2023-01-05T11:57:20.239Z,98877.50
2023-01-05T11:59:51.799Z,98875.91
2023-01-05T12:02:49.316Z,98881.91
2023-01-05T12:05:32.965Z,98868.03
2023-01-05T12:08:09.558Z,98866.25
2023-01-05T12:10:59.390Z,98868.22
2023-01-05T12:14:06.142Z,98868.28
2023-01-05T12:16:47.949Z,98868.63
2023-01-05T12:19:54.328Z,98871.66
2023-01-05T12:22:56.897Z,98870.47
2023-01-05T12:25:36.004Z,98881.34
2023-01-05T12:28:39.668Z,98861.84
2023-01-05T12:34:33.986Z,98871.13
2023-01-05T12:37:26.256Z,98881.13
2023-01-05T12:40:33.341Z,98895.69
2023-01-05T12:43:06.162Z,98894.66
2023-01-05T12:46:07.150Z,98903.19
2023-01-05T12:48:40.181Z,98902.84
2023-01-05T12:51:18.030Z,98900.03
2023-01-05T12:53:56.716Z,98899.72
2023-01-05T12:56:30.679Z,98898.69
2023-01-05T12:59:10.818Z,98902.47
2023-01-05T13:01:47.630Z,98899.22
2023-01-05T13:04:43.074Z,98900.22
2023-01-05T13:07:22.247Z,98906.88
2023-01-05T13:10:02.595Z,98898.78
2023-01-05T13:12:33.760Z,98896.88
2023-01-05T13:15:17.588Z,98898.34
2023-01-05T13:17:50.375Z,98895.59
2023-01-05T13:20:29.650Z,98897.78
2023-01-05T13:23:04.489Z,98908.81
2023-01-05T13:25:40.937Z,98896.69
2023-01-05T13:28:22.425Z,98901.03
2023-01-05T13:31:25.485Z,98899.38
2023-01-05T13:34:14.791Z,98894.34
2023-01-05T13:37:02.145Z,98888.25
2023-01-05T13:39:53.783Z,98892.63
2023-01-05T13:42:35.213Z,98886.56
2023-01-05T13:45:27.535Z,98896.16
2023-01-05T13:48:38.273Z,98895.50
2023-01-05T13:51:41.076Z,98899.88
2023-01-05T13:54:19.004Z,98904.28
2023-01-05T13:56:50.934Z,98896.44
2023-01-05T13:59:35.462Z,98913.88
2023-01-05T14:02:28.403Z,98922.66
2023-01-05T14:04:57.803Z,98926.09
2023-01-05T14:07:28.010Z,98923.41
2023-01-05T14:09:58.526Z,98927.72
2023-01-05T14:12:44.454Z,98934.63
2023-01-05T14:15:36.683Z,98932.00
2023-01-05T14:18:06.506Z,98941.59
2023-01-05T14:20:49.291Z,98948.63
2023-01-05T14:23:57.407Z,98953.00
2023-01-05T14:27:09.905Z,98954.16
2023-01-05T14:30:21.595Z,98963.44
2023-01-05T14:32:55.459Z,98960.81
2023-01-05T14:35:31.868Z,98966.88
2023-01-05T14:38:03.330Z,98974.50
2023-01-05T14:40:39.063Z,98966.47
2023-01-05T14:43:24.896Z,98960.94
2023-01-05T14:46:06.371Z,98971.09
2023-01-05T14:48:38.271Z,98973.09
2023-01-05T14:51:15.536Z,98957.66
2023-01-05T14:53:47.343Z,98971.69
2023-01-05T14:56:19.426Z,98972.63
2023-01-05T14:59:14.341Z,98976.16
2023-01-05T15:01:50.353Z,98978.69
2023-01-05T15:04:24.106Z,98977.75
2023-01-05T15:07:11.616Z,98979.44
2023-01-05T15:10:14.479Z,98987.03
2023-01-05T15:13:02.210Z,98992.25
2023-01-05T15:15:43.472Z,98987.81
2023-01-05T15:19:03.965Z,98985.19
2023-01-05T15:21:57.412Z,98992.25
2023-01-05T15:24:58.163Z,98989.72
2023-01-05T15:27:57.863Z,98993.34
2023-01-05T15:31:06.005Z,98989.94
2023-01-05T15:33:42.311Z,98990.09
2023-01-05T15:36:24.650Z,98993.63
2023-01-05T15:38:54.595Z,98991.00
2023-01-05T15:41:24.681Z,98992.88
2023-01-05T15:43:54.050Z,98996.41
2023-01-05T15:46:27.803Z,98996.41
2023-01-05T15:48:57.222Z,98986.09
2023-01-05T15:51:30.472Z,98985.97
2023-01-05T15:54:00.802Z,98995.47
2023-01-05T15:56:33.068Z,98989.34
2023-01-05T15:59:02.743Z,98993.69
2023-01-05T16:01:31.489Z,98988.47
2023-01-05T16:04:09.290Z,98991.00
2023-01-05T16:06:41.060Z,98990.00
2023-01-05T16:09:13.171Z,98994.41
2023-01-05T16:11:44.401Z,98996.09
2023-01-05T16:14:19.331Z,98995.16
2023-01-05T16:16:54.568Z,99004.84
2023-01-05T16:19:28.056Z,98989.19
2023-01-05T16:22:02.060Z,98994.41
2023-01-05T16:24:36.695Z,98993.47
2023-01-05T16:27:06.239Z,99002.06
2023-01-05T16:29:39.891Z,98997.78
2023-01-05T16:32:28.170Z,98999.56
2023-01-05T16:35:25.632Z,98997.78
2023-01-05T16:38:16.423Z,99001.31
2023-01-05T16:41:09.078Z,99004.84
2023-01-05T16:43:42.435Z,99005.66
2023-01-05T16:46:32.723Z,99009.06
2023-01-05T16:49:07.662Z,99004.00
2023-01-05T16:51:43.222Z,98999.75
2023-01-05T16:54:22.286Z,99012.13
2023-01-05T16:56:58.111Z,99011.56
2023-01-05T16:59:41.665Z,99026.59
2023-01-05T17:02:45.715Z,99024.13
2023-01-05T17:05:19.429Z,99029.34
2023-01-05T17:07:50.632Z,99018.84
2023-01-05T17:10:23.765Z,99019.72
2023-01-05T17:13:00.604Z,99033.50
2023-01-05T17:15:34.379Z,99039.47
2023-01-05T17:18:12.211Z,99045.63
2023-01-05T17:20:43.354Z,99062.94
2023-01-05T17:23:16.243Z,99071.41
2023-01-05T17:25:46.206Z,99085.53
2023-01-05T17:28:14.721Z,99091.00
2023-01-05T17:30:43.379Z,99095.91
2023-01-05T17:33:11.962Z,99086.81
2023-01-05T17:35:41.494Z,99109.66
2023-01-05T17:38:11.240Z,99114.84
2023-01-05T17:40:40.119Z,99120.13
2023-01-05T17:43:10.431Z,99116.69
2023-01-05T17:45:42.172Z,99113.72
2023-01-05T17:50:41.283Z,99141.63
2023-01-05T17:53:09.956Z,99152.41
2023-01-05T17:55:38.932Z,99157.03
2023-01-05T17:58:12.199Z,99159.91
2023-01-05T18:03:17.338Z,99179.34
2023-01-05T18:05:45.833Z,99199.66
2023-01-05T18:08:14.688Z,99186.84
2023-01-05T18:10:44.130Z,99195.72
2023-01-05T18:13:18.285Z,99195.03
2023-01-05T18:15:53.263Z,99198.59
2023-01-05T18:18:22.976Z,99209.13
2023-01-05T18:20:52.875Z,99213.50
2023-01-05T18:23:24.662Z,99224.81
2023-01-05T18:25:53.687Z,99230.09
2023-01-05T18:28:24.113Z,99230.97
2023-01-05T18:33:22.897Z,99253.56
2023-01-05T18:38:24.087Z,99258.06
2023-01-05T18:40:52.959Z,99266.69
2023-01-05T18:43:21.675Z,99260.66
2023-01-05T18:45:57.717Z,99277.09
2023-01-05T18:48:26.704Z,99287.53
2023-01-05T18:50:56.136Z,99289.34
2023-01-05T18:53:25.585Z,99291.09
2023-01-05T18:55:54.621Z,99304.09
2023-01-05T18:58:24.060Z,99299.75
2023-01-05T19:00:53.115Z,99315.44
2023-01-05T19:03:25.413Z,99323.28
2023-01-05T19:05:54.130Z,99324.31
2023-01-05T19:08:22.884Z,99333.09
2023-01-05T19:10:51.732Z,99338.53
2023-01-05T19:13:20.708Z,99342.22
2023-01-05T19:15:49.665Z,99352.91
2023-01-05T19:18:22.561Z,99339.28
2023-01-05T19:20:59.168Z,99361.97
2023-01-05T19:23:28.874Z,99356.06
2023-01-05T19:26:04.644Z,99368.41
2023-01-05T19:28:36.768Z,99365.16
2023-01-05T19:31:06.328Z,99378.22
2023-01-05T19:33:39.922Z,99377.47
2023-01-05T19:36:11.441Z,99381.03
2023-01-05T19:38:42.139Z,99390.66
2023-01-05T19:41:13.559Z,99396.03
2023-01-05T19:43:45.132Z,99397.97
2023-01-05T19:46:15.921Z,99407.53
2023-01-05T19:48:47.334Z,99421.63
2023-01-05T19:51:18.661Z,99422.56
2023-01-05T19:53:56.866Z,99423.53
2023-01-05T19:56:29.265Z,99414.84
2023-01-05T19:59:00.258Z,99420.91
2023-01-05T20:01:30.348Z,99432.19
2023-01-05T20:04:00.869Z,99424.41
2023-01-05T20:06:34.585Z,99437.38
2023-01-05T20:09:06.896Z,99442.53
2023-01-05T20:11:43.626Z,99440.75
2023-01-05T20:14:19.508Z,99446.84
2023-01-05T20:16:53.255Z,99452.84
2023-01-05T20:19:28.633Z,99477.16
2023-01-05T20:22:02.411Z,99473.63
2023-01-05T20:24:36.398Z,99474.53
2023-01-05T20:27:08.273Z,99472.78
2023-01-05T20:29:37.869Z,99479.75
2023-01-05T20:32:09.358Z,99478.88
2023-01-05T20:34:41.771Z,99493.63
2023-01-05T20:37:11.100Z,99491.13
2023-01-05T20:39:42.247Z,99500.66
2023-01-05T20:42:13.110Z,99511.94
2023-01-05T20:44:46.569Z,99506.69
2023-01-05T20:47:16.666Z,99510.16
2023-01-05T20:49:47.567Z,99514.56
2023-01-05T20:52:18.926Z,99525.00
2023-01-05T20:54:48.833Z,99530.16
2023-01-05T20:57:17.792Z,99536.22
2023-01-05T20:59:50.148Z,99542.22
2023-01-05T21:02:24.244Z,99549.09
2023-01-05T21:04:55.009Z,99553.47
2023-01-05T21:07:24.388Z,99555.19
2023-01-05T21:09:56.053Z,99557.81
2023-01-05T21:12:27.536Z,99562.09
2023-01-05T21:14:56.343Z,99569.84
2023-01-05T21:17:26.345Z,99575.09
2023-01-05T21:19:58.385Z,99570.75
2023-01-05T21:22:30.947Z,99584.56
2023-01-05T21:25:01.187Z,99575.94
2023-01-05T21:27:30.087Z,99579.47
2023-01-05T21:29:58.699Z,99583.81
2023-01-05T21:32:29.647Z,99596.00
2023-01-05T21:35:08.184Z,99594.34
2023-01-05T21:37:37.523Z,99597.03
2023-01-05T21:40:07.555Z,99615.25
2023-01-05T21:42:43.064Z,99618.75
2023-01-05T21:45:13.905Z,99627.44
2023-01-05T21:47:43.022Z,99630.06
2023-01-05T21:50:36.414Z,99643.09
2023-01-05T21:53:23.261Z,99651.72
2023-01-05T21:56:09.887Z,99657.78
2023-01-05T21:58:39.018Z,99663.91
2023-01-05T22:01:08.435Z,99665.72
2023-01-05T22:03:40.497Z,99671.84
2023-01-05T22:06:13.400Z,99683.06
2023-01-05T22:08:45.247Z,99695.28
2023-01-05T22:11:14.380Z,99697.03
2023-01-05T22:13:43.497Z,99697.16
2023-01-05T22:16:12.938Z,99711.88
2023-01-05T22:18:41.837Z,99716.28
2023-01-05T22:21:15.917Z,99711.94
2023-01-05T22:23:44.899Z,99724.19
2023-01-05T22:26:19.138Z,99723.44
2023-01-05T22:28:49.422Z,99735.72
2023-01-05T22:31:25.039Z,99736.69
2023-01-05T22:33:56.441Z,99749.00
2023-01-05T22:36:28.295Z,99754.41
2023-01-05T22:38:58.077Z,99758.81
2023-01-05T22:41:30.134Z,99770.19
2023-01-05T22:43:59.799Z,99772.00
2023-01-05T22:46:30.780Z,99782.41
2023-01-05T22:49:01.040Z,99788.50
2023-01-05T22:51:34.154Z,99793.69
2023-01-05T22:54:03.250Z,99786.03
2023-01-05T22:56:33.609Z,99793.91
2023-01-05T22:59:03.383Z,99805.22
2023-01-05T23:01:35.324Z,99815.63
2023-01-05T23:04:05.764Z,99821.72
2023-01-05T23:06:39.167Z,99826.97
2023-01-05T23:09:10.581Z,99842.56
2023-01-05T23:11:42.417Z,99855.56
2023-01-05T23:14:13.251Z,99867.78
2023-01-05T23:16:42.455Z,99864.41
2023-01-05T23:19:12.166Z,99863.53
2023-01-05T23:21:42.797Z,99882.56
2023-01-05T23:24:11.566Z,99887.81
2023-01-05T23:26:40.494Z,99897.41
2023-01-05T23:29:09.459Z,99900.00
2023-01-05T23:31:39.913Z,99906.91
2023-01-05T23:34:08.678Z,99914.69
2023-01-05T23:36:41.617Z,99929.38
2023-01-05T23:39:12.194Z,99932.06
2023-01-05T23:41:41.027Z,99941.59
2023-01-05T23:44:11.747Z,99945.09
2023-01-05T23:46:41.912Z,99956.41
2023-01-05T23:49:10.613Z,99953.03
2023-01-05T23:51:39.190Z,99960.03
2023-01-05T23:54:08.247Z,99966.09
2023-01-05T23:56:38.805Z,99980.88
2023-01-05T23:59:09.690Z,99982.69
